sensor_id;sensor_type;location;lat;lon;timestamp;temperature;humidity
14908;DHT22;7545;52.092;7.006;2023-02-01T00:01:39;5.60;99.90
14908;DHT22;7545;52.092;7.006;2023-02-01T00:04:05;5.70;99.90
14908;DHT22;7545;52.092;7.006;2023-02-01T00:06:30;5.70;99.90
14908;DHT22;7545;52.092;7.006;2023-02-01T00:08:56;5.80;99.90
14908;DHT22;7545;52.092;7.006;2023-02-01T00:11:23;5.80;99.90
14908;DHT22;7545;52.092;7.006;2023-02-01T00:13:49;5.80;99.90
14908;DHT22;7545;52.092;7.006;2023-02-01T00:16:17;5.80;99.90
14908;DHT22;7545;52.092;7.006;2023-02-01T00:18:49;5.80;99.90
14908;DHT22;7545;52.092;7.006;2023-02-01T00:21:17;5.80;99.90
14908;DHT22;7545;52.092;7.006;2023-02-01T00:23:43;5.70;99.90
14908;DHT22;7545;52.092;7.006;2023-02-01T00:26:15;5.80;99.90
14908;DHT22;7545;52.092;7.006;2023-02-01T00:28:41;5.80;99.90
14908;DHT22;7545;52.092;7.006;2023-02-01T00:31:07;5.80;99.90
14908;DHT22;7545;52.092;7.006;2023-02-01T00:33:33;5.80;99.90
14908;DHT22;7545;52.092;7.006;2023-02-01T00:36:01;5.80;99.90
14908;DHT22;7545;52.092;7.006;2023-02-01T00:38:28;5.70;99.90
14908;DHT22;7545;52.092;7.006;2023-02-01T00:40:54;5.80;99.90
14908;DHT22;7545;52.092;7.006;2023-02-01T00:43:26;5.80;99.90
14908;DHT22;7545;52.092;7.006;2023-02-01T00:45:52;5.80;99.90
14908;DHT22;7545;52.092;7.006;2023-02-01T00:48:17;5.80;99.90
14908;DHT22;7545;52.092;7.006;2023-02-01T00:50:43;5.80;99.90
14908;DHT22;7545;52.092;7.006;2023-02-01T00:53:09;5.90;99.90
14908;DHT22;7545;52.092;7.006;2023-02-01T00:55:35;5.90;99.90
14908;DHT22;7545;52.092;7.006;2023-02-01T00:58:01;5.90;99.90
14908;DHT22;7545;52.092;7.006;2023-02-01T01:00:27;5.90;99.90
14908;DHT22;7545;52.092;7.006;2023-02-01T01:02:52;5.90;99.90
14908;DHT22;7545;52.092;7.006;2023-02-01T01:05:18;5.90;99.90
14908;DHT22;7545;52.092;7.006;2023-02-01T01:07:44;5.90;99.90
14908;DHT22;7545;52.092;7.006;2023-02-01T01:10:10;5.80;99.90
14908;DHT22;7545;52.092;7.006;2023-02-01T01:12:36;5.90;99.90
14908;DHT22;7545;52.092;7.006;2023-02-01T01:15:01;5.90;99.90
14908;DHT22;7545;52.092;7.006;2023-02-01T01:17:27;5.80;99.90
14908;DHT22;7545;52.092;7.006;2023-02-01T01:19:52;5.80;99.90
14908;DHT22;7545;52.092;7.006;2023-02-01T01:22:18;5.90;99.90
14908;DHT22;7545;52.092;7.006;2023-02-01T01:24:44;5.90;99.90
14908;DHT22;7545;52.092;7.006;2023-02-01T01:27:09;5.90;99.90
14908;DHT22;7545;52.092;7.006;2023-02-01T01:29:35;5.90;99.90
14908;DHT22;7545;52.092;7.006;2023-02-01T01:32:01;5.90;99.90
14908;DHT22;7545;52.092;7.006;2023-02-01T01:34:27;5.90;99.90
14908;DHT22;7545;52.092;7.006;2023-02-01T01:36:52;5.90;99.90
14908;DHT22;7545;52.092;7.006;2023-02-01T01:39:18;5.90;99.90
14908;DHT22;7545;52.092;7.006;2023-02-01T01:41:43;5.90;99.90
14908;DHT22;7545;52.092;7.006;2023-02-01T01:47:14;5.90;99.90
14908;DHT22;7545;52.092;7.006;2023-02-01T01:49:40;5.90;99.90
14908;DHT22;7545;52.092;7.006;2023-02-01T01:52:06;5.90;99.90
14908;DHT22;7545;52.092;7.006;2023-02-01T01:54:37;5.90;99.90
14908;DHT22;7545;52.092;7.006;2023-02-01T01:57:14;5.90;99.90
14908;DHT22;7545;52.092;7.006;2023-02-01T01:59:46;5.90;99.90
14908;DHT22;7545;52.092;7.006;2023-02-01T02:02:13;5.90;99.90
14908;DHT22;7545;52.092;7.006;2023-02-01T02:04:39;5.90;99.90
14908;DHT22;7545;52.092;7.006;2023-02-01T02:07:09;5.90;99.90
14908;DHT22;7545;52.092;7.006;2023-02-01T02:09:37;5.80;99.90
14908;DHT22;7545;52.092;7.006;2023-02-01T02:12:03;5.80;99.90
14908;DHT22;7545;52.092;7.006;2023-02-01T02:14:29;5.80;99.90
14908;DHT22;7545;52.092;7.006;2023-02-01T02:20:22;5.80;99.90
14908;DHT22;7545;52.092;7.006;2023-02-01T02:32:06;5.80;99.90
14908;DHT22;7545;52.092;7.006;2023-02-01T02:34:38;5.90;99.90
14908;DHT22;7545;52.092;7.006;2023-02-01T02:45:28;5.90;99.90
14908;DHT22;7545;52.092;7.006;2023-02-01T02:48:27;5.90;99.90
14908;DHT22;7545;52.092;7.006;2023-02-01T02:51:04;5.90;99.90
14908;DHT22;7545;52.092;7.006;2023-02-01T02:56:37;5.90;99.90
14908;DHT22;7545;52.092;7.006;2023-02-01T02:59:24;5.90;99.90
14908;DHT22;7545;52.092;7.006;2023-02-01T03:02:10;5.90;99.90
14908;DHT22;7545;52.092;7.006;2023-02-01T03:04:55;5.90;99.90
14908;DHT22;7545;52.092;7.006;2023-02-01T03:10:17;5.90;99.90
14908;DHT22;7545;52.092;7.006;2023-02-01T03:12:43;5.90;99.90
14908;DHT22;7545;52.092;7.006;2023-02-01T03:15:31;5.80;99.90
14908;DHT22;7545;52.092;7.006;2023-02-01T03:17:58;5.90;99.90
14908;DHT22;7545;52.092;7.006;2023-02-01T03:20:27;5.80;99.90
14908;DHT22;7545;52.092;7.006;2023-02-01T03:22:55;5.80;99.90
14908;DHT22;7545;52.092;7.006;2023-02-01T03:25:26;5.80;99.90
14908;DHT22;7545;52.092;7.006;2023-02-01T03:28:04;5.80;99.90
14908;DHT22;7545;52.092;7.006;2023-02-01T03:30:51;5.80;99.90
14908;DHT22;7545;52.092;7.006;2023-02-01T03:33:20;5.80;99.90
14908;DHT22;7545;52.092;7.006;2023-02-01T03:36:00;5.80;99.90
14908;DHT22;7545;52.092;7.006;2023-02-01T03:41:15;5.80;99.90
14908;DHT22;7545;52.092;7.006;2023-02-01T03:46:21;5.80;99.90
14908;DHT22;7545;52.092;7.006;2023-02-01T03:48:49;5.80;99.90
14908;DHT22;7545;52.092;7.006;2023-02-01T03:51:19;5.80;99.90
14908;DHT22;7545;52.092;7.006;2023-02-01T03:53:46;5.80;99.90
14908;DHT22;7545;52.092;7.006;2023-02-01T03:56:15;5.80;99.90
14908;DHT22;7545;52.092;7.006;2023-02-01T03:58:42;5.80;99.90
14908;DHT22;7545;52.092;7.006;2023-02-01T04:01:23;5.80;99.90
14908;DHT22;7545;52.092;7.006;2023-02-01T04:03:48;5.80;99.90
14908;DHT22;7545;52.092;7.006;2023-02-01T04:06:15;5.90;99.90
14908;DHT22;7545;52.092;7.006;2023-02-01T04:08:40;5.80;99.90
14908;DHT22;7545;52.092;7.006;2023-02-01T04:11:06;5.80;99.90
14908;DHT22;7545;52.092;7.006;2023-02-01T04:13:31;5.80;99.90
14908;DHT22;7545;52.092;7.006;2023-02-01T04:15:57;5.90;99.90
14908;DHT22;7545;52.092;7.006;2023-02-01T04:18:22;5.80;99.90
14908;DHT22;7545;52.092;7.006;2023-02-01T04:20:48;5.80;99.90
14908;DHT22;7545;52.092;7.006;2023-02-01T04:23:14;5.80;99.90
14908;DHT22;7545;52.092;7.006;2023-02-01T04:25:41;5.80;99.90
14908;DHT22;7545;52.092;7.006;2023-02-01T04:28:06;5.80;99.90
14908;DHT22;7545;52.092;7.006;2023-02-01T04:30:32;5.80;99.90
14908;DHT22;7545;52.092;7.006;2023-02-01T04:32:58;5.80;99.90
14908;DHT22;7545;52.092;7.006;2023-02-01T04:35:23;5.80;99.90
14908;DHT22;7545;52.092;7.006;2023-02-01T04:37:49;5.80;99.90
14908;DHT22;7545;52.092;7.006;2023-02-01T04:40:15;5.80;99.90
14908;DHT22;7545;52.092;7.006;2023-02-01T04:42:41;5.80;99.90
14908;DHT22;7545;52.092;7.006;2023-02-01T04:45:07;5.80;99.90
14908;DHT22;7545;52.092;7.006;2023-02-01T04:47:34;5.80;99.90
14908;DHT22;7545;52.092;7.006;2023-02-01T04:50:00;5.70;99.90
14908;DHT22;7545;52.092;7.006;2023-02-01T04:52:25;5.80;99.90
14908;DHT22;7545;52.092;7.006;2023-02-01T04:54:52;5.90;99.90
14908;DHT22;7545;52.092;7.006;2023-02-01T04:57:19;5.80;99.90
14908;DHT22;7545;52.092;7.006;2023-02-01T04:59:45;5.80;99.90
14908;DHT22;7545;52.092;7.006;2023-02-01T05:02:10;5.80;99.90
14908;DHT22;7545;52.092;7.006;2023-02-01T05:04:36;5.80;99.90
14908;DHT22;7545;52.092;7.006;2023-02-01T05:07:02;5.90;99.90
14908;DHT22;7545;52.092;7.006;2023-02-01T05:09:27;5.90;99.90
14908;DHT22;7545;52.092;7.006;2023-02-01T05:11:53;5.90;99.90
14908;DHT22;7545;52.092;7.006;2023-02-01T05:14:37;5.90;99.90
14908;DHT22;7545;52.092;7.006;2023-02-01T05:17:02;5.90;99.90
14908;DHT22;7545;52.092;7.006;2023-02-01T05:19:28;5.90;99.90
14908;DHT22;7545;52.092;7.006;2023-02-01T05:21:53;5.80;99.90
14908;DHT22;7545;52.092;7.006;2023-02-01T05:24:19;5.90;99.90
14908;DHT22;7545;52.092;7.006;2023-02-01T05:26:47;5.90;99.90
14908;DHT22;7545;52.092;7.006;2023-02-01T05:29:13;5.90;99.90
14908;DHT22;7545;52.092;7.006;2023-02-01T05:31:38;5.80;99.90
14908;DHT22;7545;52.092;7.006;2023-02-01T05:34:05;5.80;99.90
14908;DHT22;7545;52.092;7.006;2023-02-01T05:36:31;5.90;99.90
14908;DHT22;7545;52.092;7.006;2023-02-01T05:38:56;5.90;99.90
14908;DHT22;7545;52.092;7.006;2023-02-01T05:41:22;5.90;99.90
14908;DHT22;7545;52.092;7.006;2023-02-01T05:43:48;5.90;99.90
14908;DHT22;7545;52.092;7.006;2023-02-01T05:46:13;5.90;99.90
14908;DHT22;7545;52.092;7.006;2023-02-01T05:48:40;5.90;99.90
14908;DHT22;7545;52.092;7.006;2023-02-01T05:51:05;5.90;99.90
14908;DHT22;7545;52.092;7.006;2023-02-01T05:53:31;6.00;99.90
14908;DHT22;7545;52.092;7.006;2023-02-01T05:55:57;6.00;99.90
14908;DHT22;7545;52.092;7.006;2023-02-01T05:58:22;6.00;99.90
14908;DHT22;7545;52.092;7.006;2023-02-01T06:00:48;6.00;99.90
14908;DHT22;7545;52.092;7.006;2023-02-01T06:03:13;6.00;99.90
14908;DHT22;7545;52.092;7.006;2023-02-01T06:05:39;6.00;99.90
14908;DHT22;7545;52.092;7.006;2023-02-01T06:08:05;6.00;99.90
14908;DHT22;7545;52.092;7.006;2023-02-01T06:10:33;6.00;99.90
14908;DHT22;7545;52.092;7.006;2023-02-01T06:12:58;6.00;99.90
14908;DHT22;7545;52.092;7.006;2023-02-01T06:15:24;6.00;99.90
14908;DHT22;7545;52.092;7.006;2023-02-01T06:17:49;6.00;99.90
14908;DHT22;7545;52.092;7.006;2023-02-01T06:20:15;6.00;99.90
14908;DHT22;7545;52.092;7.006;2023-02-01T06:22:41;6.00;99.90
14908;DHT22;7545;52.092;7.006;2023-02-01T06:25:08;6.00;99.90
14908;DHT22;7545;52.092;7.006;2023-02-01T06:27:34;6.00;99.90
14908;DHT22;7545;52.092;7.006;2023-02-01T06:30:01;6.00;99.90
14908;DHT22;7545;52.092;7.006;2023-02-01T06:32:27;6.00;99.90
14908;DHT22;7545;52.092;7.006;2023-02-01T06:34:53;6.00;99.90
14908;DHT22;7545;52.092;7.006;2023-02-01T06:37:19;6.00;99.90
14908;DHT22;7545;52.092;7.006;2023-02-01T06:39:45;6.10;99.90
14908;DHT22;7545;52.092;7.006;2023-02-01T06:42:11;6.10;99.90
14908;DHT22;7545;52.092;7.006;2023-02-01T06:44:36;6.00;99.90
14908;DHT22;7545;52.092;7.006;2023-02-01T06:47:03;6.10;99.90
14908;DHT22;7545;52.092;7.006;2023-02-01T06:49:29;6.10;99.90
14908;DHT22;7545;52.092;7.006;2023-02-01T06:51:54;6.10;99.90
14908;DHT22;7545;52.092;7.006;2023-02-01T06:54:20;6.10;99.90
14908;DHT22;7545;52.092;7.006;2023-02-01T06:56:46;6.10;99.90
14908;DHT22;7545;52.092;7.006;2023-02-01T06:59:11;6.10;99.90
14908;DHT22;7545;52.092;7.006;2023-02-01T07:01:37;6.10;99.90
14908;DHT22;7545;52.092;7.006;2023-02-01T07:04:03;6.10;99.90
14908;DHT22;7545;52.092;7.006;2023-02-01T07:06:28;6.10;99.90
14908;DHT22;7545;52.092;7.006;2023-02-01T07:08:54;6.20;99.90
14908;DHT22;7545;52.092;7.006;2023-02-01T07:11:22;6.20;99.90
14908;DHT22;7545;52.092;7.006;2023-02-01T07:13:48;6.20;99.90
14908;DHT22;7545;52.092;7.006;2023-02-01T07:16:16;6.20;99.90
14908;DHT22;7545;52.092;7.006;2023-02-01T07:18:43;6.20;99.90
14908;DHT22;7545;52.092;7.006;2023-02-01T07:21:08;6.20;99.90
14908;DHT22;7545;52.092;7.006;2023-02-01T07:23:34;6.30;99.90
14908;DHT22;7545;52.092;7.006;2023-02-01T07:26:03;6.30;99.90
14908;DHT22;7545;52.092;7.006;2023-02-01T07:28:31;6.30;99.90
14908;DHT22;7545;52.092;7.006;2023-02-01T07:31:11;6.30;99.90
14908;DHT22;7545;52.092;7.006;2023-02-01T07:33:38;6.30;99.90
14908;DHT22;7545;52.092;7.006;2023-02-01T07:36:06;6.30;99.90
14908;DHT22;7545;52.092;7.006;2023-02-01T07:38:32;6.30;99.90
14908;DHT22;7545;52.092;7.006;2023-02-01T07:41:02;6.40;99.90
14908;DHT22;7545;52.092;7.006;2023-02-01T07:43:29;6.40;99.90
14908;DHT22;7545;52.092;7.006;2023-02-01T07:45:55;6.30;99.90
14908;DHT22;7545;52.092;7.006;2023-02-01T07:48:22;6.40;99.90
14908;DHT22;7545;52.092;7.006;2023-02-01T07:50:56;6.40;99.90
14908;DHT22;7545;52.092;7.006;2023-02-01T07:53:22;6.50;99.90
14908;DHT22;7545;52.092;7.006;2023-02-01T07:55:47;6.50;99.90
14908;DHT22;7545;52.092;7.006;2023-02-01T07:58:13;6.50;99.90
14908;DHT22;7545;52.092;7.006;2023-02-01T08:00:38;6.50;99.90
14908;DHT22;7545;52.092;7.006;2023-02-01T08:03:23;6.50;99.90
14908;DHT22;7545;52.092;7.006;2023-02-01T08:05:54;6.50;99.90
14908;DHT22;7545;52.092;7.006;2023-02-01T08:08:19;6.50;99.90
14908;DHT22;7545;52.092;7.006;2023-02-01T08:10:45;6.50;99.90
14908;DHT22;7545;52.092;7.006;2023-02-01T08:13:10;6.50;99.90
14908;DHT22;7545;52.092;7.006;2023-02-01T08:15:36;6.50;99.90
14908;DHT22;7545;52.092;7.006;2023-02-01T08:18:01;6.60;99.90
14908;DHT22;7545;52.092;7.006;2023-02-01T08:20:27;6.50;99.90
14908;DHT22;7545;52.092;7.006;2023-02-01T08:22:53;6.60;99.90
14908;DHT22;7545;52.092;7.006;2023-02-01T08:25:19;6.60;99.90
14908;DHT22;7545;52.092;7.006;2023-02-01T08:27:45;6.60;99.90
14908;DHT22;7545;52.092;7.006;2023-02-01T08:30:11;6.60;99.90
14908;DHT22;7545;52.092;7.006;2023-02-01T08:32:36;6.60;99.90
14908;DHT22;7545;52.092;7.006;2023-02-01T08:35:03;6.60;99.90
14908;DHT22;7545;52.092;7.006;2023-02-01T08:37:29;6.70;99.90
14908;DHT22;7545;52.092;7.006;2023-02-01T08:39:55;6.60;99.90
14908;DHT22;7545;52.092;7.006;2023-02-01T08:42:20;6.70;99.90
14908;DHT22;7545;52.092;7.006;2023-02-01T08:45:05;6.70;99.90
14908;DHT22;7545;52.092;7.006;2023-02-01T08:47:31;6.70;99.90
14908;DHT22;7545;52.092;7.006;2023-02-01T08:49:57;6.80;99.90
14908;DHT22;7545;52.092;7.006;2023-02-01T08:52:23;6.80;99.90
14908;DHT22;7545;52.092;7.006;2023-02-01T08:54:48;6.80;99.90
14908;DHT22;7545;52.092;7.006;2023-02-01T08:57:14;6.80;99.90
14908;DHT22;7545;52.092;7.006;2023-02-01T08:59:39;6.80;99.90
14908;DHT22;7545;52.092;7.006;2023-02-01T09:02:05;6.80;99.90
14908;DHT22;7545;52.092;7.006;2023-02-01T09:04:31;6.90;99.90
14908;DHT22;7545;52.092;7.006;2023-02-01T09:06:57;6.80;99.90
14908;DHT22;7545;52.092;7.006;2023-02-01T09:09:23;6.90;99.90
14908;DHT22;7545;52.092;7.006;2023-02-01T09:11:49;6.80;99.90
14908;DHT22;7545;52.092;7.006;2023-02-01T09:14:18;6.90;99.90
14908;DHT22;7545;52.092;7.006;2023-02-01T09:16:44;6.90;99.90
14908;DHT22;7545;52.092;7.006;2023-02-01T09:19:09;6.90;99.90
14908;DHT22;7545;52.092;7.006;2023-02-01T09:21:35;6.90;99.90
14908;DHT22;7545;52.092;7.006;2023-02-01T09:24:01;7.00;99.90
14908;DHT22;7545;52.092;7.006;2023-02-01T09:26:27;7.00;99.90
14908;DHT22;7545;52.092;7.006;2023-02-01T09:28:52;7.00;99.90
14908;DHT22;7545;52.092;7.006;2023-02-01T09:31:19;7.00;99.90
14908;DHT22;7545;52.092;7.006;2023-02-01T09:33:45;7.00;99.90
14908;DHT22;7545;52.092;7.006;2023-02-01T09:36:10;7.10;99.90
14908;DHT22;7545;52.092;7.006;2023-02-01T09:38:36;7.10;99.90
14908;DHT22;7545;52.092;7.006;2023-02-01T09:41:51;7.10;99.90
14908;DHT22;7545;52.092;7.006;2023-02-01T09:46:35;7.10;99.90
14908;DHT22;7545;52.092;7.006;2023-02-01T09:49:05;7.10;99.90
14908;DHT22;7545;52.092;7.006;2023-02-01T09:51:39;7.20;99.90
14908;DHT22;7545;52.092;7.006;2023-02-01T09:54:42;7.20;99.90
14908;DHT22;7545;52.092;7.006;2023-02-01T09:57:24;7.20;99.90
14908;DHT22;7545;52.092;7.006;2023-02-01T10:00:00;7.20;99.90
14908;DHT22;7545;52.092;7.006;2023-02-01T10:02:27;7.10;99.90
14908;DHT22;7545;52.092;7.006;2023-02-01T10:04:59;7.20;99.90
14908;DHT22;7545;52.092;7.006;2023-02-01T10:07:41;7.10;99.90
14908;DHT22;7545;52.092;7.006;2023-02-01T10:10:29;7.10;99.90
14908;DHT22;7545;52.092;7.006;2023-02-01T10:23:56;7.20;99.90
14908;DHT22;7545;52.092;7.006;2023-02-01T10:26:26;7.20;99.90
14908;DHT22;7545;52.092;7.006;2023-02-01T10:28:53;7.20;99.90
14908;DHT22;7545;52.092;7.006;2023-02-01T10:31:24;7.20;99.90
14908;DHT22;7545;52.092;7.006;2023-02-01T10:33:59;7.30;99.90
14908;DHT22;7545;52.092;7.006;2023-02-01T10:36:32;7.30;99.90
14908;DHT22;7545;52.092;7.006;2023-02-01T10:38:59;7.30;99.90
14908;DHT22;7545;52.092;7.006;2023-02-01T10:41:31;7.30;99.90
14908;DHT22;7545;52.092;7.006;2023-02-01T10:43:58;7.30;99.90
14908;DHT22;7545;52.092;7.006;2023-02-01T10:46:25;7.30;99.90
14908;DHT22;7545;52.092;7.006;2023-02-01T10:48:54;7.30;99.90
14908;DHT22;7545;52.092;7.006;2023-02-01T10:51:21;7.30;99.90
14908;DHT22;7545;52.092;7.006;2023-02-01T10:54:00;7.30;99.90
14908;DHT22;7545;52.092;7.006;2023-02-01T10:56:27;7.30;99.90
14908;DHT22;7545;52.092;7.006;2023-02-01T10:59:03;7.30;99.90
14908;DHT22;7545;52.092;7.006;2023-02-01T11:01:40;7.30;99.90
14908;DHT22;7545;52.092;7.006;2023-02-01T11:04:14;7.20;99.90
14908;DHT22;7545;52.092;7.006;2023-02-01T11:06:42;7.20;99.90
14908;DHT22;7545;52.092;7.006;2023-02-01T11:09:16;7.20;99.90
14908;DHT22;7545;52.092;7.006;2023-02-01T11:14:16;7.10;99.90
14908;DHT22;7545;52.092;7.006;2023-02-01T11:16:47;7.10;99.90
14908;DHT22;7545;52.092;7.006;2023-02-01T11:19:15;7.10;99.90
14908;DHT22;7545;52.092;7.006;2023-02-01T11:21:42;7.10;99.90
14908;DHT22;7545;52.092;7.006;2023-02-01T11:24:26;7.00;99.90
14908;DHT22;7545;52.092;7.006;2023-02-01T11:27:02;7.00;99.90
14908;DHT22;7545;52.092;7.006;2023-02-01T11:29:35;6.90;99.90
14908;DHT22;7545;52.092;7.006;2023-02-01T11:32:02;6.90;99.90
14908;DHT22;7545;52.092;7.006;2023-02-01T11:34:42;6.90;99.90
14908;DHT22;7545;52.092;7.006;2023-02-01T11:37:38;6.90;99.90
14908;DHT22;7545;52.092;7.006;2023-02-01T11:42:55;6.80;99.90
14908;DHT22;7545;52.092;7.006;2023-02-01T11:45:29;6.80;99.90
14908;DHT22;7545;52.092;7.006;2023-02-01T11:47:57;6.80;99.90
14908;DHT22;7545;52.092;7.006;2023-02-01T11:50:39;6.70;99.90
14908;DHT22;7545;52.092;7.006;2023-02-01T12:10:12;6.80;99.90
14908;DHT22;7545;52.092;7.006;2023-02-01T12:21:26;6.70;99.90
14908;DHT22;7545;52.092;7.006;2023-02-01T12:23:58;6.70;99.90
14908;DHT22;7545;52.092;7.006;2023-02-01T12:26:46;6.70;99.90
14908;DHT22;7545;52.092;7.006;2023-02-01T12:34:55;6.70;99.90
14908;DHT22;7545;52.092;7.006;2023-02-01T12:40:36;6.70;99.90
14908;DHT22;7545;52.092;7.006;2023-02-01T12:43:36;6.70;99.90
14908;DHT22;7545;52.092;7.006;2023-02-01T12:46:35;6.80;99.90
14908;DHT22;7545;52.092;7.006;2023-02-01T12:49:16;6.90;99.90
14908;DHT22;7545;52.092;7.006;2023-02-01T12:51:47;6.90;99.90
14908;DHT22;7545;52.092;7.006;2023-02-01T12:54:34;6.90;99.90
14908;DHT22;7545;52.092;7.006;2023-02-01T12:57:08;6.90;99.90
14908;DHT22;7545;52.092;7.006;2023-02-01T12:59:42;7.00;99.90
14908;DHT22;7545;52.092;7.006;2023-02-01T13:02:42;6.90;99.90
14908;DHT22;7545;52.092;7.006;2023-02-01T13:07:54;7.10;99.90
14908;DHT22;7545;52.092;7.006;2023-02-01T13:12:56;7.10;99.90
14908;DHT22;7545;52.092;7.006;2023-02-01T13:15:26;7.10;99.90
14908;DHT22;7545;52.092;7.006;2023-02-01T13:17:57;7.20;99.90
14908;DHT22;7545;52.092;7.006;2023-02-01T13:20:34;7.10;99.90
14908;DHT22;7545;52.092;7.006;2023-02-01T13:23:18;7.20;99.90
14908;DHT22;7545;52.092;7.006;2023-02-01T13:25:51;7.20;99.90
14908;DHT22;7545;52.092;7.006;2023-02-01T13:37:23;7.40;99.90
14908;DHT22;7545;52.092;7.006;2023-02-01T13:45:37;7.50;99.90
14908;DHT22;7545;52.092;7.006;2023-02-01T13:48:19;7.50;99.90
14908;DHT22;7545;52.092;7.006;2023-02-01T13:50:51;7.50;99.90
14908;DHT22;7545;52.092;7.006;2023-02-01T13:53:21;7.50;99.90
14908;DHT22;7545;52.092;7.006;2023-02-01T13:56:13;7.50;99.90
14908;DHT22;7545;52.092;7.006;2023-02-01T13:58:41;7.50;99.90
14908;DHT22;7545;52.092;7.006;2023-02-01T14:03:58;7.50;99.90
14908;DHT22;7545;52.092;7.006;2023-02-01T14:11:49;7.50;99.90
14908;DHT22;7545;52.092;7.006;2023-02-01T14:19:36;7.50;99.90
14908;DHT22;7545;52.092;7.006;2023-02-01T14:24:51;7.50;99.90
14908;DHT22;7545;52.092;7.006;2023-02-01T14:27:21;7.50;99.90
14908;DHT22;7545;52.092;7.006;2023-02-01T14:29:59;7.50;99.90
14908;DHT22;7545;52.092;7.006;2023-02-01T14:32:36;7.50;99.90
14908;DHT22;7545;52.092;7.006;2023-02-01T14:35:07;7.60;99.90
14908;DHT22;7545;52.092;7.006;2023-02-01T14:37:38;7.60;99.90
14908;DHT22;7545;52.092;7.006;2023-02-01T14:40:05;7.60;99.90
14908;DHT22;7545;52.092;7.006;2023-02-01T15:09:14;7.90;99.90
14908;DHT22;7545;52.092;7.006;2023-02-01T15:14:27;7.90;99.90
14908;DHT22;7545;52.092;7.006;2023-02-01T15:16:53;7.90;99.90
14908;DHT22;7545;52.092;7.006;2023-02-01T15:19:21;7.90;99.90
14908;DHT22;7545;52.092;7.006;2023-02-01T15:21:50;7.80;99.90
14908;DHT22;7545;52.092;7.006;2023-02-01T15:24:26;7.80;99.90
14908;DHT22;7545;52.092;7.006;2023-02-01T15:26:53;7.80;99.90
14908;DHT22;7545;52.092;7.006;2023-02-01T15:29:21;7.80;99.90
14908;DHT22;7545;52.092;7.006;2023-02-01T15:31:51;7.80;99.90
14908;DHT22;7545;52.092;7.006;2023-02-01T15:34:18;7.80;99.90
14908;DHT22;7545;52.092;7.006;2023-02-01T15:36:45;7.80;99.90
14908;DHT22;7545;52.092;7.006;2023-02-01T15:39:31;7.80;99.90
14908;DHT22;7545;52.092;7.006;2023-02-01T15:42:11;7.70;99.90
14908;DHT22;7545;52.092;7.006;2023-02-01T15:44:45;7.70;99.90
14908;DHT22;7545;52.092;7.006;2023-02-01T15:47:20;7.70;99.90
14908;DHT22;7545;52.092;7.006;2023-02-01T15:49:52;7.70;99.90
14908;DHT22;7545;52.092;7.006;2023-02-01T15:52:43;7.70;99.90
14908;DHT22;7545;52.092;7.006;2023-02-01T15:55:34;7.70;99.90
14908;DHT22;7545;52.092;7.006;2023-02-01T15:58:05;7.60;99.90
14908;DHT22;7545;52.092;7.006;2023-02-01T16:00:42;7.60;99.90
14908;DHT22;7545;52.092;7.006;2023-02-01T16:03:36;7.60;99.90
14908;DHT22;7545;52.092;7.006;2023-02-01T16:06:08;7.60;99.90
14908;DHT22;7545;52.092;7.006;2023-02-01T16:08:35;7.60;99.90
14908;DHT22;7545;52.092;7.006;2023-02-01T16:13:33;7.50;99.90
14908;DHT22;7545;52.092;7.006;2023-02-01T16:15:59;7.50;99.90
14908;DHT22;7545;52.092;7.006;2023-02-01T16:18:25;7.50;99.90
14908;DHT22;7545;52.092;7.006;2023-02-01T16:20:51;7.50;99.90
14908;DHT22;7545;52.092;7.006;2023-02-01T16:23:16;7.40;99.90
14908;DHT22;7545;52.092;7.006;2023-02-01T16:25:42;7.40;99.90
14908;DHT22;7545;52.092;7.006;2023-02-01T16:28:08;7.30;99.90
14908;DHT22;7545;52.092;7.006;2023-02-01T16:30:34;7.30;99.90
14908;DHT22;7545;52.092;7.006;2023-02-01T16:33:01;7.30;99.90
14908;DHT22;7545;52.092;7.006;2023-02-01T16:35:37;7.30;99.90
14908;DHT22;7545;52.092;7.006;2023-02-01T16:38:12;7.30;99.90
14908;DHT22;7545;52.092;7.006;2023-02-01T16:40:42;7.30;99.90
14908;DHT22;7545;52.092;7.006;2023-02-01T16:43:22;7.20;99.90
14908;DHT22;7545;52.092;7.006;2023-02-01T16:45:49;7.20;99.90
14908;DHT22;7545;52.092;7.006;2023-02-01T16:48:23;7.20;99.90
14908;DHT22;7545;52.092;7.006;2023-02-01T16:50:53;7.20;99.90
14908;DHT22;7545;52.092;7.006;2023-02-01T16:53:19;7.20;99.90
14908;DHT22;7545;52.092;7.006;2023-02-01T16:55:44;7.10;99.90
14908;DHT22;7545;52.092;7.006;2023-02-01T16:58:13;7.10;99.90
14908;DHT22;7545;52.092;7.006;2023-02-01T17:00:38;7.10;99.90
14908;DHT22;7545;52.092;7.006;2023-02-01T17:03:04;7.00;99.90
14908;DHT22;7545;52.092;7.006;2023-02-01T17:05:31;7.00;99.90
14908;DHT22;7545;52.092;7.006;2023-02-01T17:08:04;6.90;99.90
14908;DHT22;7545;52.092;7.006;2023-02-01T17:10:31;7.00;99.90
14908;DHT22;7545;52.092;7.006;2023-02-01T17:12:56;7.00;99.90
14908;DHT22;7545;52.092;7.006;2023-02-01T17:15:24;6.90;99.90
14908;DHT22;7545;52.092;7.006;2023-02-01T17:17:51;6.90;99.90
14908;DHT22;7545;52.092;7.006;2023-02-01T17:20:22;6.80;99.90
14908;DHT22;7545;52.092;7.006;2023-02-01T17:22:49;6.80;99.90
14908;DHT22;7545;52.092;7.006;2023-02-01T17:25:16;6.70;99.90
14908;DHT22;7545;52.092;7.006;2023-02-01T17:27:42;6.70;99.90
14908;DHT22;7545;52.092;7.006;2023-02-01T17:30:10;6.70;99.90
14908;DHT22;7545;52.092;7.006;2023-02-01T17:32:36;6.70;99.90
14908;DHT22;7545;52.092;7.006;2023-02-01T17:35:04;6.70;99.90
14908;DHT22;7545;52.092;7.006;2023-02-01T17:37:32;6.70;99.90
14908;DHT22;7545;52.092;7.006;2023-02-01T17:39:59;6.70;99.90
14908;DHT22;7545;52.092;7.006;2023-02-01T17:42:27;6.70;99.90
14908;DHT22;7545;52.092;7.006;2023-02-01T17:44:56;6.70;99.90
14908;DHT22;7545;52.092;7.006;2023-02-01T17:47:22;6.70;99.90
14908;DHT22;7545;52.092;7.006;2023-02-01T17:49:48;6.70;99.90
14908;DHT22;7545;52.092;7.006;2023-02-01T17:52:22;6.80;99.90
14908;DHT22;7545;52.092;7.006;2023-02-01T17:54:48;6.70;99.90
14908;DHT22;7545;52.092;7.006;2023-02-01T17:57:15;6.70;99.90
14908;DHT22;7545;52.092;7.006;2023-02-01T17:59:41;6.70;99.90
14908;DHT22;7545;52.092;7.006;2023-02-01T18:02:25;6.70;99.90
14908;DHT22;7545;52.092;7.006;2023-02-01T18:04:51;6.70;99.90
14908;DHT22;7545;52.092;7.006;2023-02-01T18:07:17;6.70;99.90
14908;DHT22;7545;52.092;7.006;2023-02-01T18:09:42;6.70;99.90
14908;DHT22;7545;52.092;7.006;2023-02-01T18:12:16;6.70;99.90
14908;DHT22;7545;52.092;7.006;2023-02-01T18:14:43;6.60;99.90
14908;DHT22;7545;52.092;7.006;2023-02-01T18:17:08;6.70;99.90
14908;DHT22;7545;52.092;7.006;2023-02-01T18:19:34;6.70;99.90
14908;DHT22;7545;52.092;7.006;2023-02-01T18:22:01;6.60;99.90
14908;DHT22;7545;52.092;7.006;2023-02-01T18:24:27;6.50;99.90
14908;DHT22;7545;52.092;7.006;2023-02-01T18:26:54;6.50;99.90
14908;DHT22;7545;52.092;7.006;2023-02-01T18:29:20;6.40;99.90
14908;DHT22;7545;52.092;7.006;2023-02-01T18:31:47;6.40;99.90
14908;DHT22;7545;52.092;7.006;2023-02-01T18:34:16;6.40;99.90
14908;DHT22;7545;52.092;7.006;2023-02-01T18:36:48;6.40;99.90
14908;DHT22;7545;52.092;7.006;2023-02-01T18:39:13;6.40;99.90
14908;DHT22;7545;52.092;7.006;2023-02-01T18:41:39;6.40;99.90
14908;DHT22;7545;52.092;7.006;2023-02-01T18:44:05;6.40;99.90
14908;DHT22;7545;52.092;7.006;2023-02-01T18:46:31;6.40;99.90
14908;DHT22;7545;52.092;7.006;2023-02-01T18:48:56;6.40;99.90
14908;DHT22;7545;52.092;7.006;2023-02-01T18:51:22;6.40;99.90
14908;DHT22;7545;52.092;7.006;2023-02-01T18:53:48;6.40;99.90